ADDS METAR Data INFO
IDs: Format: Raw Decoded Include TAF

Data at: 1915 UTC 23 Apr 2018

KAJR 231855Z AUTO 09011G16KT 10SM -RA OVC002 12/12 A3003 RMK AO2 T01200120
KAJR 231835Z AUTO 09012G20KT 5SM -RA OVC002 12/12 A3003 RMK AO2 T01180118
KAJR 231815Z AUTO 09011G21KT 060V120 4SM -RA OVC002 12/12 A3003 RMK AO2 T01170117
KAJR 231755Z AUTO 09011G25KT 7SM OVC002 12/12 A3003 RMK AO2 T01180118 10118 20115
KAJR 231735Z AUTO 08015G22KT 7SM OVC002 12/12 A3004 RMK AO2 T01170117
KAJR 231715Z AUTO 08012G22KT 10SM OVC004 12/12 A3004 RMK AO2 T01170117
KAJR 231655Z AUTO 09013G23KT 10SM OVC004 12/12 A3006 RMK AO2 T01160116
KAJR 231635Z AUTO 09012G20KT 10SM -DZ OVC006 12/12 A3006 RMK AO2 T01160116
KAJR 231615Z AUTO 09014G27KT 7SM -RA BKN008 OVC014 12/12 A3007 RMK AO2 T01150115
KAJR 231555Z AUTO 08013G27KT 4SM -RA BKN008 BKN016 OVC021 12/12 A3007 RMK AO2 T01150115
KAJR 231535Z AUTO 07015G23KT 4SM -RA BKN008 OVC014 12/12 A3007 RMK AO2 T01160116
KAJR 231515Z AUTO 06013G18KT 5SM -RA BKN008 OVC012 12/12 A3007 RMK AO2 T01150115
KAJR 231455Z AUTO 07011G19KT 3SM RA BKN008 OVC014 12/12 A3008 RMK AO2 T01150115
KAJR 231435Z AUTO 07013G20KT 2SM RA BKN008 OVC013 12/12 A3007 RMK AO2 T01150115
KAJR 231415Z AUTO 07013G23KT 4SM RA BKN006 OVC013 12/12 A3009 RMK AO2 T01160116
KAJR 231355Z AUTO 08009KT 5SM RA BKN009 BKN016 OVC022 12/12 A3009 RMK AO2 T01160116
KAJR 231335Z AUTO 08011G17KT 3SM RA SCT014 BKN021 OVC027 12/12 A3009 RMK AO2 T01160116
KAJR 231315Z AUTO 09010G20KT 3SM +RA SCT006 BKN020 OVC039 12/12 A3009 RMK AO2 T01160116
KAJR 231255Z AUTO 09010G24KT 4SM RA SCT006 BKN021 OVC046 12/12 A3009 RMK AO2 T01160116
KAJR 231235Z AUTO 10010G20KT 7SM -RA BKN006 BKN010 OVC026 12/12 A3009 RMK AO2 T01160116
KAJR 231215Z AUTO 11009G16KT 070V150 7SM RA OVC006 12/12 A3010 RMK AO2 T01150115
KAJR 231155Z AUTO 10012G21KT 070V140 5SM -RA BKN008 BKN012 OVC019 12/12 A3008 RMK AO2 T01160116 10123 20115
KAJR 231135Z AUTO 09012G22KT 070V140 3SM RA BKN008 OVC016 12/12 A3007 RMK AO2 T01160116
KAJR 231115Z AUTO 09011G18KT 4SM RA BKN008 BKN011 OVC016 12/12 A3004 RMK AO2 T01160116
KAJR 231055Z AUTO 08014G22KT 4SM +RA BKN008 OVC015 12/12 A3002 RMK AO2 T01180118
KAJR 231035Z AUTO 09014G23KT 060V130 5SM RA BKN008 OVC011 12/12 A3003 RMK AO2 T01200120
KAJR 231015Z AUTO 08012G24KT 3SM +RA BKN008 OVC014 12/12 A3002 RMK AO2 T01200120
KAJR 230955Z AUTO 09014G26KT 5SM -RA BKN006 OVC012 12/12 A3002 RMK AO2 T01220122
KAJR 230935Z AUTO 08013G21KT 4SM +RA BKN008 OVC012 12/12 A3003 RMK AO2 T01220122
KAJR 230915Z AUTO 08014G25KT 5SM +RA BKN006 OVC012 12/12 A3002 RMK AO2 T01230123
KAJR 230855Z AUTO 09013G21KT 4SM +RA BKN008 OVC013 12/12 A3005 RMK AO2 T01220122
KAJR 230835Z AUTO 09011G23KT 5SM RA BKN008 OVC013 12/12 A3006 RMK AO2 T01230123
KAJR 230815Z AUTO 09013G22KT 4SM +RA BKN010 OVC013 12/12 A3007 RMK AO2 T01230123
KAJR 230755Z AUTO 08016G25KT 4SM +RA SCT010 BKN015 OVC022 12/12 A3006 RMK AO2 T01220122
KAJR 230735Z AUTO 09014G20KT 7SM RA SCT008 BKN012 OVC018 12/12 A3007 RMK AO2 T01220122
KAJR 230715Z AUTO 10009G21KT 070V140 4SM +RA SCT008 BKN014 OVC022 12/12 A3009 RMK AO2 T01220122
KAJR 230655Z AUTO 09008G16KT 5SM +RA SCT008 BKN014 OVC019 12/12 A3009 RMK AO2 T01220122
KAJR 230635Z AUTO 09010G18KT 10SM RA SCT008 BKN014 OVC022 12/12 A3010 RMK AO2 T01230123
KAJR 230615Z AUTO 09011G17KT 5SM RA BKN008 OVC016 12/12 A3010 RMK AO2 T01230123
KAJR 230555Z AUTO 10008G18KT 070V140 7SM RA BKN011 BKN017 OVC036 12/12 A3011 RMK AO2 T01220122 10128 20122 401530122
KAJR 230535Z AUTO 10010G21KT 070V150 7SM RA BKN015 BKN036 OVC060 12/12 A3010 RMK AO2 T01230123
KAJR 230515Z AUTO 09011G19KT 070V130 10SM -RA SCT011 BKN015 OVC037 12/12 A3011 RMK AO2 T01230123
KAJR 230455Z AUTO 09009G17KT 10SM RA SCT010 OVC015 12/12 A3013 RMK AO2 T01220122
KAJR 230435Z AUTO 10008G26KT 10SM -RA BKN010 OVC015 12/12 A3014 RMK AO2 T01220122
KAJR 230415Z AUTO 10010G18KT 7SM RA BKN010 OVC015 12/12 A3014 RMK AO2 T01240124
KAJR 230355Z AUTO 10009G20KT 070V130 10SM -DZ BKN010 OVC015 13/13 A3015 RMK AO2 T01250125
KAJR 230335Z AUTO 11008G19KT 060V130 10SM -RA SCT009 OVC015 13/13 A3015 RMK AO2 T01250125
KAJR 230315Z AUTO 09012G20KT 070V130 10SM -RA SCT009 BKN014 OVC033 13/13 A3014 RMK AO2 T01260126
KAJR 230255Z AUTO 09013G23KT 060V120 10SM BKN007 BKN015 OVC035 13/13 A3014 RMK AO2 T01250125
KAJR 230235Z AUTO 10009G21KT 10SM -DZ BKN009 OVC012 13/13 A3016 RMK AO2 T01260126
KAJR 230215Z AUTO 09010G17KT 050V130 7SM -RA BKN007 OVC012 13/13 A3016 RMK AO2 T01250125
KAJR 230155Z AUTO 10011G18KT 060V120 10SM RA BKN006 OVC011 13/13 A3017 RMK AO2 T01250125
KAJR 230135Z AUTO 10012G19KT 060V120 10SM -RA BKN008 OVC012 13/13 A3017 RMK AO2 T01260126
KAJR 230115Z AUTO 09011G21KT 060V120 10SM -RA BKN008 BKN014 OVC018 13/13 A3017 RMK AO2 T01260126
KAJR 230055Z AUTO 10010G18KT 10SM -RA SCT008 OVC020 13/13 A3018 RMK AO2 T01250125
KAJR 230035Z AUTO 09009G15KT 070V130 10SM -RA OVC023 13/13 A3017 RMK AO2 T01260126
KAJR 230015Z AUTO 09013G20KT 10SM -RA OVC023 13/13 A3016 RMK AO2 T01270127
KAJR 222355Z AUTO 09009G16KT 060V130 7SM RA BKN021 OVC027 13/13 A3017 RMK AO2 T01280128 10146 20128
KAJR 222335Z AUTO 10010G15KT 7SM RA SCT009 BKN025 OVC030 13/13 A3017 RMK AO2 T01300130
KAJR 222315Z AUTO 09011G19KT 7SM -RA SCT009 OVC025 13/13 A3017 RMK AO2 T01320132
KAJR 222255Z AUTO 09010G17KT 070V140 7SM -RA SCT009 BKN023 OVC028 13/13 A3017 RMK AO2 T01340134
KAJR 222235Z AUTO 10009G16KT 10SM -RA BKN007 BKN013 OVC025 14/14 A3017 RMK AO2 T01350135
KAJR 222215Z AUTO 09008KT 10SM BKN007 BKN030 OVC042 14/14 A3017 RMK AO2 T01360136
KAJR 222155Z AUTO 08008G14KT 10SM BKN007 OVC029 14/14 A3017 RMK AO2 T01360136
KAJR 222135Z AUTO 09009KT 10SM BKN007 BKN015 OVC032 14/14 A3018 RMK AO2 T01360136
KAJR 222115Z AUTO 09006KT 070V130 10SM -RA BKN007 BKN014 OVC021 14/14 A3018 RMK AO2 T01400140
KAJR 222055Z AUTO 09009KT 10SM -RA SCT005 BKN010 OVC013 14/14 A3018 RMK AO2 T01370137
KAJR 222035Z AUTO 11006KT 7SM -RA SCT005 OVC010 14/14 A3019 RMK AO2 T01360136
KAJR 222015Z AUTO 10004KT 7SM -RA SCT005 BKN008 OVC012 14/14 A3021 RMK AO2 T01370137
KAJR 221955Z AUTO 10005KT 7SM -RA BKN013 BKN023 OVC034 14/14 A3022 RMK AO2 T01380138
KAJR 221935Z AUTO 09004KT 5SM RA SCT012 BKN022 OVC035 14/14 A3023 RMK AO2 T01380138
KAJR 221915Z AUTO 09003KT 4SM RA SCT019 BKN034 OVC042 14/14 A3024 RMK AO2 T01370137
KAJR 221855Z AUTO 10004KT 4SM RA BKN018 BKN030 OVC042 14/14 A3025 RMK AO2 T01360136
KAJR 221835Z AUTO 10005KT 5SM RA SCT020 BKN027 OVC042 14/14 A3024 RMK AO2 T01400140
KAJR 221815Z AUTO 08005KT 10SM RA SCT016 BKN027 OVC035 14/14 A3024 RMK AO2 T01420142
KAJR 221755Z AUTO 09007KT 10SM -RA BKN018 BKN033 OVC055 15/15 A3024 RMK AO2 T01470147 10153 20125
KAJR 221735Z AUTO 09011G16KT 10SM -RA SCT016 BKN035 OVC110 15/15 A3024 RMK AO2 T01500146
KAJR 221715Z AUTO 09007KT 060V120 10SM SCT016 SCT037 BKN110 15/14 A3025 RMK AO2 T01520144
KAJR 221655Z AUTO 08008KT 10SM SCT038 SCT060 BKN070 15/14 A3025 RMK AO2 T01500142
KAJR 221635Z AUTO 09005KT 10SM SCT017 OVC040 15/14 A3026 RMK AO2 T01450140
KAJR 221615Z AUTO 11007KT 10SM BKN016 OVC042 15/14 A3028 RMK AO2 T01450139
KAJR 221555Z AUTO 11003KT 10SM BKN016 BKN024 OVC039 15/14 A3029 RMK AO2 T01460139
KAJR 221535Z AUTO 12005KT 10SM BKN018 BKN029 OVC055 15/14 A3030 RMK AO2 T01460137
KAJR 221515Z AUTO 09006KT 10SM SCT020 BKN055 OVC080 15/14 A3028 RMK AO2 T01480136
KAJR 221455Z AUTO 09005KT 10SM SCT029 SCT039 BKN060 15/13 A3028 RMK AO2 T01460133
KAJR 221435Z AUTO 11007KT 070V130 10SM SCT022 BKN041 OVC060 14/13 A3029 RMK AO2 T01400131
KAJR 221415Z AUTO 09005KT 10SM BKN022 BKN039 OVC055 14/13 A3029 RMK AO2 T01400130
KAJR 221355Z AUTO 11003KT 10SM OVC018 14/13 A3029 RMK AO2 T01370128
KAJR 221335Z AUTO 08007KT 060V120 10SM OVC016 14/13 A3028 RMK AO2 T01390127
KAJR 221315Z AUTO 08010KT 10SM BKN016 14/12 A3028 RMK AO2 T01370124
KAJR 221255Z AUTO 08004KT 10SM SCT016 BKN036 BKN049 13/12 A3028 RMK AO2 T01330123
KAJR 221235Z AUTO 09006KT 10SM SCT018 SCT036 BKN090 13/12 A3029 RMK AO2 T01300122
KAJR 221215Z AUTO 08004KT 10SM SCT018 SCT043 SCT095 13/12 A3029 RMK AO2 T01270118
KAJR 221155Z AUTO 09007KT 10SM SCT022 SCT033 BKN042 13/11 A3029 RMK AO2 T01250112 10141 20125
KAJR 221135Z AUTO 08007KT 10SM BKN020 BKN026 OVC032 13/11 A3031 RMK AO2 T01260110
KAJR 221115Z AUTO 07003KT 10SM SCT020 BKN032 OVC046 13/11 A3031 RMK AO2 T01270108
KAJR 221055Z AUTO 09004KT 10SM SCT018 BKN046 OVC085 13/10 A3029 RMK AO2 T01270103
KAJR 221035Z AUTO 08007KT 10SM BKN048 BKN055 OVC085 13/10 A3028 RMK AO2 T01270099
KAJR 221015Z AUTO 08005KT 7SM BKN048 BKN055 OVC080 13/09 A3028 RMK AO2 T01260091
KAJR 220955Z AUTO 07005KT 10SM BKN050 OVC080 13/09 A3028 RMK AO2 T01270085
KAJR 220935Z AUTO 07005KT 7SM SCT050 OVC080 13/08 A3027 RMK AO2 T01280082
KAJR 220915Z AUTO 07005KT 7SM SCT033 BKN050 OVC080 13/09 A3027 RMK AO2 T01300085
KAJR 220855Z AUTO 05004KT 10SM SCT033 BKN055 OVC080 13/09 A3027 RMK AO2 T01320086
KAJR 220835Z AUTO 07006KT 7SM BKN037 BKN055 OVC080 14/09 A3027 RMK AO2 T01350090
KAJR 220815Z AUTO 09005KT 7SM SCT033 SCT060 OVC080 14/09 A3028 RMK AO2 T01350090
KAJR 220755Z AUTO 09003KT 7SM SCT027 SCT035 OVC080 14/09 A3028 RMK AO2 T01350090
KAJR 220735Z AUTO 09003KT 10SM SCT027 BKN036 OVC060 14/08 A3028 RMK AO2 T01360078